Time;durP1;ratioP1;P1;durP2;ratioP2;P2;SDS_P1;SDS_P2;PMS_P1;PMS_P2;Temp;Humidity;BMP_temperature;BMP_pressure;BME280_temperature;BME280_humidity;BME280_pressure;Samples;Min_cycle;Max_cycle;Signal;HPM_P1;HPM_P2
2021/04/09 00:00:58;;;;;;;2.25;0.80;;;21.70;71.50;;;;;;5021474;28;20029;-70
2021/04/09 00:04:04;;;;;;;2.38;0.93;;;21.60;71.40;;;;;;5028736;28;20032;-70
2021/04/09 00:07:10;;;;;;;3.20;1.02;;;21.70;71.50;;;;;;5023180;28;20095;-70
2021/04/09 00:10:16;;;;;;;2.75;1.38;;;21.60;71.40;;;;;;5044923;28;20036;-74
2021/04/09 00:13:22;;;;;;;1.75;1.08;;;21.60;71.30;;;;;;5024312;28;20380;-74
2021/04/09 00:16:28;;;;;;;1.98;0.90;;;21.60;71.30;;;;;;5026573;28;20552;-75
2021/04/09 00:19:34;;;;;;;4.25;1.00;;;21.60;71.20;;;;;;5026502;28;20044;-77
2021/04/09 00:22:40;;;;;;;2.88;0.77;;;21.60;71.20;;;;;;5028211;28;20031;-76
2021/04/09 00:25:49;;;;;;;2.53;1.00;;;21.60;71.20;;;;;;5025255;28;20021;-75
2021/04/09 00:28:55;;;;;;;2.20;1.08;;;21.60;71.10;;;;;;5022196;28;20030;-72
2021/04/09 00:32:01;;;;;;;4.03;1.00;;;21.60;71.10;;;;;;5024867;28;20033;-76
2021/04/09 00:35:08;;;;;;;2.75;0.68;;;21.50;71.10;;;;;;5025915;28;20033;-74
2021/04/09 00:37:34;;;;;;;1.50;0.50;;;21.60;71.20;;;;;;5026273;28;20033;-73
2021/04/09 00:40:01;;;;;;;3.10;1.13;;;21.50;71.10;;;;;;5021542;28;20464;-74
2021/04/09 00:42:27;;;;;;;2.33;1.10;;;21.60;71.00;;;;;;5025149;28;20029;-75
2021/04/09 00:44:57;;;;;;;2.33;0.80;;;21.50;71.00;;;;;;5025322;28;22735;-76
2021/04/09 00:47:24;;;;;;;1.52;0.90;;;21.50;71.00;;;;;;5024011;28;20033;-76
2021/04/09 00:49:51;;;;;;;1.65;0.77;;;21.50;71.00;;;;;;5026549;28;20025;-75
2021/04/09 00:52:18;;;;;;;3.20;1.23;;;21.50;71.00;;;;;;5024636;28;20028;-76
2021/04/09 00:54:45;;;;;;;1.08;0.90;;;21.50;71.00;;;;;;5047247;28;20028;-75
2021/04/09 00:57:11;;;;;;;3.05;1.38;;;21.50;71.00;;;;;;5027788;28;20076;-78
2021/04/09 00:59:38;;;;;;;1.83;1.63;;;21.40;71.00;;;;;;5025210;28;20048;-76
2021/04/09 01:02:05;;;;;;;4.72;1.45;;;21.50;71.10;;;;;;5026726;28;20026;-75
2021/04/09 01:04:32;;;;;;;3.03;1.27;;;21.40;71.00;;;;;;5029665;28;20144;-74
2021/04/09 01:06:59;;;;;;;3.88;1.17;;;21.40;71.00;;;;;;5030028;28;20052;-73
2021/04/09 01:09:25;;;;;;;3.47;1.52;;;21.40;71.00;;;;;;5028433;28;20021;-75
2021/04/09 01:11:52;;;;;;;3.15;1.98;;;21.40;71.00;;;;;;5028966;28;20021;-76
2021/04/09 01:14:18;;;;;;;4.00;1.90;;;21.40;71.00;;;;;;5027401;28;20112;-75
2021/04/09 01:16:48;;;;;;;2.72;0.80;;;21.40;71.00;;;;;;5025031;28;20026;-75
2021/04/09 01:19:38;;;;;;;1.15;0.88;;;21.40;70.90;;;;;;5034508;28;20413;-75
2021/04/09 01:22:08;;;;;;;5.40;1.23;;;21.40;70.90;;;;;;5028832;28;20048;-77
2021/04/09 01:24:59;;;;;;;1.70;0.90;;;21.40;70.90;;;;;;5029487;28;20026;-75
2021/04/09 01:28:00;;;;;;;3.88;0.90;;;21.40;70.90;;;;;;5022509;28;20097;-76
2021/04/09 01:30:33;;;;;;;4.03;1.70;;;21.40;71.00;;;;;;5021106;28;20119;-74
2021/04/09 01:33:02;;;;;;;3.58;1.45;;;21.40;71.00;;;;;;5026237;28;20496;-74
2021/04/09 01:35:29;;;;;;;2.65;1.00;;;21.40;71.00;;;;;;5021295;28;20106;-74
2021/04/09 01:38:04;;;;;;;2.90;1.02;;;21.40;71.00;;;;;;5027418;28;20364;-72
2021/04/09 01:40:38;;;;;;;1.50;1.15;;;21.40;71.10;;;;;;5027248;28;20021;-71
2021/04/09 01:43:09;;;;;;;2.20;1.00;;;21.40;71.10;;;;;;5029342;28;20423;-71
2021/04/09 01:45:36;;;;;;;1.95;1.25;;;21.30;71.00;;;;;;5025949;28;20424;-73
2021/04/09 01:48:07;;;;;;;2.58;1.25;;;21.40;71.20;;;;;;5021770;28;20480;-71
2021/04/09 01:50:35;;;;;;;2.17;1.08;;;21.30;71.20;;;;;;5023951;28;20022;-73
2021/04/09 01:53:03;;;;;;;2.42;1.02;;;21.30;71.20;;;;;;5025886;28;20473;-71
2021/04/09 01:55:35;;;;;;;2.20;0.95;;;21.30;71.20;;;;;;5024742;28;20071;-73
2021/04/09 01:58:03;;;;;;;2.42;0.75;;;21.30;71.30;;;;;;5027172;28;20069;-71
2021/04/09 02:00:31;;;;;;;1.55;1.00;;;21.30;71.30;;;;;;5027026;28;20103;-74
2021/04/09 02:03:00;;;;;;;1.80;1.15;;;21.30;71.30;;;;;;5020593;28;20028;-73
2021/04/09 02:05:28;;;;;;;2.47;1.00;;;21.30;71.30;;;;;;5025220;28;20045;-73
2021/04/09 02:07:59;;;;;;;2.72;1.63;;;21.20;71.20;;;;;;5027903;28;20017;-73
2021/04/09 02:10:27;;;;;;;4.38;2.80;;;21.30;71.30;;;;;;5022371;28;20018;-71
2021/04/09 02:12:54;;;;;;;6.15;4.20;;;21.20;71.30;;;;;;5027415;28;20049;-76
2021/04/09 02:15:23;;;;;;;5.15;2.63;;;21.20;71.30;;;;;;5026272;28;20087;-77
2021/04/09 02:17:50;;;;;;;2.80;2.05;;;21.20;71.40;;;;;;5025825;28;20037;-79
2021/04/09 02:20:20;;;;;;;7.43;2.47;;;21.30;71.50;;;;;;5023242;28;20049;-77
2021/04/09 02:22:48;;;;;;;4.63;1.73;;;21.20;71.50;;;;;;5026066;28;20025;-76
2021/04/09 02:25:18;;;;;;;4.30;1.67;;;21.20;71.50;;;;;;5023862;28;20040;-78
2021/04/09 02:27:46;;;;;;;2.95;1.70;;;21.20;71.60;;;;;;5027473;28;20427;-74
2021/04/09 02:30:14;;;;;;;5.70;1.92;;;21.20;71.60;;;;;;5024170;28;20076;-76
2021/04/09 02:32:41;;;;;;;3.60;1.58;;;21.20;71.60;;;;;;5021932;28;20080;-76
2021/04/09 02:35:10;;;;;;;1.90;1.52;;;21.20;71.70;;;;;;5023113;28;20061;-73
2021/04/09 02:37:40;;;;;;;1.73;1.60;;;21.20;71.70;;;;;;5030119;28;20544;-75
2021/04/09 02:40:16;;;;;;;2.80;1.15;;;21.20;71.70;;;;;;5028043;28;20432;-79
2021/04/09 02:42:46;;;;;;;8.00;2.63;;;21.20;71.80;;;;;;5023530;28;20108;-79
2021/04/09 02:45:15;;;;;;;4.10;1.25;;;21.20;71.80;;;;;;5026529;28;20572;-78
2021/04/09 02:47:44;;;;;;;3.47;1.13;;;21.10;71.80;;;;;;5025885;28;20026;-79
2021/04/09 02:50:33;;;;;;;2.55;0.98;;;21.20;71.80;;;;;;5027133;28;20465;-75
2021/04/09 02:53:08;;;;;;;1.52;1.25;;;21.10;71.70;;;;;;5022012;28;20041;-72
2021/04/09 02:55:36;;;;;;;;;;;21.10;71.80;;;;;;5023179;28;20036;-75
2021/04/09 02:58:06;;;;;;;1.55;0.73;;;21.20;71.90;;;;;;5024815;28;19913;-71
2021/04/09 03:00:35;;;;;;;4.20;2.15;;;21.10;71.80;;;;;;5024247;28;20451;-72
2021/04/09 03:03:04;;;;;;;6.95;4.57;;;21.10;71.80;;;;;;5022866;28;20083;-76
2021/04/09 03:05:31;;;;;;;3.72;2.85;;;21.20;71.90;;;;;;5020411;28;20026;-78
2021/04/09 03:08:00;;;;;;;6.55;3.28;;;21.10;71.90;;;;;;5025931;28;20084;-74
2021/04/09 03:10:27;;;;;;;4.95;1.88;;;21.10;71.90;;;;;;5023276;28;20024;-72
2021/04/09 03:12:54;;;;;;;2.67;1.95;;;21.10;71.90;;;;;;5026380;28;20041;-71
2021/04/09 03:15:27;;;;;;;5.45;2.00;;;21.10;71.90;;;;;;5025303;28;20029;-72
2021/04/09 03:17:57;;;;;;;4.07;1.20;;;21.10;71.90;;;;;;5026364;28;20029;-73
2021/04/09 03:21:03;;;;;;;2.50;1.30;;;21.10;72.00;;;;;;5023146;28;20026;-73
2021/04/09 03:24:09;;;;;;;3.53;1.35;;;21.10;72.00;;;;;;5020714;28;20116;-71
2021/04/09 03:27:16;;;;;;;5.38;1.20;;;21.00;71.90;;;;;;5021280;28;20353;-71
2021/04/09 03:30:07;;;;;;;4.32;1.30;;;21.00;72.00;;;;;;5020244;28;20116;-72
2021/04/09 03:32:33;;;;;;;5.35;1.58;;;21.10;72.10;;;;;;5019804;28;20049;-73
2021/04/09 03:35:00;;;;;;;4.30;1.73;;;21.00;72.00;;;;;;5025676;28;20036;-73
2021/04/09 03:37:26;;;;;;;2.88;1.25;;;21.00;72.10;;;;;;5022641;28;20056;-72
2021/04/09 03:39:53;;;;;;;5.93;2.00;;;21.00;72.20;;;;;;5025482;28;20044;-72
2021/04/09 03:42:19;;;;;;;2.25;1.02;;;21.00;72.20;;;;;;5019315;28;20036;-74
2021/04/09 03:44:46;;;;;;;3.85;0.88;;;21.00;72.20;;;;;;5024005;28;20022;-74
2021/04/09 03:47:12;;;;;;;2.53;1.30;;;21.00;72.30;;;;;;5024282;28;20175;-76
2021/04/09 03:49:39;;;;;;;3.95;1.45;;;21.00;72.30;;;;;;5022631;28;20030;-70
2021/04/09 03:52:06;;;;;;;3.97;1.98;;;21.00;72.30;;;;;;5019921;28;20021;-73
2021/04/09 03:55:12;;;;;;;7.07;4.13;;;21.00;72.20;;;;;;5023526;28;20029;-69
2021/04/09 03:58:18;;;;;;;5.40;3.67;;;21.00;72.20;;;;;;5021781;28;20028;-67
2021/04/09 04:01:24;;;;;;;5.57;3.10;;;20.90;72.20;;;;;;5018199;28;20031;-69
2021/04/09 04:03:50;;;;;;;4.43;2.30;;;21.00;72.30;;;;;;5020914;28;20029;-70
2021/04/09 04:06:17;;;;;;;5.35;2.40;;;20.90;72.20;;;;;;5025286;28;20501;-72
2021/04/09 04:08:44;;;;;;;3.47;1.50;;;20.90;72.30;;;;;;5020208;28;20057;-70
2021/04/09 04:11:11;;;;;;;3.55;1.65;;;20.90;72.30;;;;;;5023244;28;20112;-73
2021/04/09 04:13:37;;;;;;;7.88;2.85;;;20.90;72.30;;;;;;5025701;28;20099;-69
2021/04/09 04:16:04;;;;;;;4.53;2.85;;;20.90;72.40;;;;;;5019213;28;20037;-65
2021/04/09 04:18:31;;;;;;;3.50;2.38;;;20.90;72.40;;;;;;5026325;28;20550;-67
2021/04/09 04:20:58;;;;;;;5.57;2.25;;;20.90;72.50;;;;;;5020641;28;20124;-71
2021/04/09 04:23:24;;;;;;;5.63;2.55;;;20.90;72.40;;;;;;5022962;28;20022;-67
2021/04/09 04:25:51;;;;;;;8.70;6.05;;;20.90;72.50;;;;;;5024141;28;20036;-66
2021/04/09 04:28:17;;;;;;;8.25;5.03;;;20.90;72.50;;;;;;5021242;28;20107;-68
2021/04/09 04:30:50;;;;;;;9.63;4.32;;;20.90;72.60;;;;;;5018872;28;20037;-67
2021/04/09 04:33:19;;;;;;;8.32;3.20;;;20.90;72.60;;;;;;5024883;28;20086;-65
2021/04/09 04:35:47;;;;;;;2.85;2.00;;;20.90;72.60;;;;;;5023971;28;20029;-66
2021/04/09 04:38:14;;;;;;;4.82;2.10;;;20.90;72.60;;;;;;5026124;28;20030;-65
2021/04/09 04:40:41;;;;;;;2.85;1.80;;;20.80;72.50;;;;;;5027914;28;20028;-66
2021/04/09 04:43:07;;;;;;;4.57;1.50;;;20.90;72.60;;;;;;5022642;28;20025;-64
2021/04/09 04:45:34;;;;;;;3.20;2.05;;;20.80;72.50;;;;;;5022649;28;20025;-74
2021/04/09 04:48:00;;;;;;;2.33;1.77;;;20.80;72.40;;;;;;5022590;28;20105;-65
2021/04/09 04:50:27;;;;;;;2.55;1.52;;;20.80;72.50;;;;;;5025846;28;20515;-65
2021/04/09 04:52:53;;;;;;;7.32;2.25;;;20.80;72.60;;;;;;5030044;28;20026;-65
2021/04/09 04:55:20;;;;;;;5.72;1.63;;;20.80;72.50;;;;;;5023298;28;20033;-69
2021/04/09 04:57:47;;;;;;;3.58;1.88;;;20.80;72.50;;;;;;5024828;28;20128;-65
2021/04/09 05:00:13;;;;;;;2.08;1.88;;;20.80;72.60;;;;;;5025935;28;20084;-72
2021/04/09 05:02:40;;;;;;;4.03;2.25;;;20.80;72.50;;;;;;5016404;28;20477;-67
2021/04/09 05:05:07;;;;;;;5.00;2.00;;;20.80;72.50;;;;;;5018676;28;20461;-70
2021/04/09 05:07:34;;;;;;;2.70;1.75;;;20.80;72.50;;;;;;5015093;28;20757;-66
2021/04/09 05:10:00;;;;;;;8.43;3.72;;;20.80;72.50;;;;;;5018730;28;20026;-69
2021/04/09 05:12:33;;;;;;;6.07;1.90;;;20.80;72.60;;;;;;5017755;28;20034;-76
2021/04/09 05:15:02;;;;;;;13.55;3.20;;;20.80;72.60;;;;;;5019356;28;20052;-76
2021/04/09 05:17:29;;;;;;;2.78;1.80;;;20.70;72.50;;;;;;5017398;28;20559;-74
2021/04/09 05:19:55;;;;;;;7.10;2.67;;;20.80;72.60;;;;;;5014766;28;20038;-70
2021/04/09 05:22:22;;;;;;;9.65;3.60;;;20.80;72.70;;;;;;5017818;28;20022;-67
2021/04/09 05:24:49;;;;;;;4.80;2.20;;;20.80;72.70;;;;;;5015392;28;20017;-70
2021/04/09 05:27:16;;;;;;;5.90;2.17;;;20.70;72.70;;;;;;5016447;28;20018;-72
2021/04/09 05:29:43;;;;;;;3.13;1.88;;;20.70;72.70;;;;;;5014792;28;20025;-69
2021/04/09 05:32:11;;;;;;;7.35;2.72;;;20.70;72.80;;;;;;5021239;28;20044;-71
2021/04/09 05:34:39;;;;;;;5.25;2.47;;;20.70;72.80;;;;;;5024593;28;20025;-71
2021/04/09 05:37:06;;;;;;;7.07;1.98;;;20.70;72.80;;;;;;5023032;28;20026;-66
2021/04/09 05:39:33;;;;;;;5.85;2.70;;;20.70;72.90;;;;;;5030074;28;20473;-69
2021/04/09 05:42:00;;;;;;;5.38;2.45;;;20.70;72.90;;;;;;5024760;28;20112;-66
2021/04/09 05:44:27;;;;;;;3.08;1.83;;;20.70;73.00;;;;;;5030800;28;20022;-65
2021/04/09 05:46:54;;;;;;;8.75;3.25;;;20.70;73.00;;;;;;5020417;28;20026;-67
2021/04/09 05:49:20;;;;;;;5.07;2.38;;;20.70;73.10;;;;;;5028134;28;20662;-65
2021/04/09 05:51:47;;;;;;;3.75;1.92;;;20.70;73.20;;;;;;5027049;28;20116;-67
2021/04/09 05:54:13;;;;;;;5.25;2.13;;;20.70;73.20;;;;;;5026238;28;20013;-68
2021/04/09 05:56:40;;;;;;;3.22;1.90;;;20.70;73.30;;;;;;5027850;28;20022;-70
2021/04/09 05:59:06;;;;;;;4.25;2.75;;;20.70;73.30;;;;;;5024959;28;20045;-70
2021/04/09 06:01:32;;;;;;;6.93;2.13;;;20.70;74.10;;;;;;5024376;28;20044;-71
2021/04/09 06:03:59;;;;;;;3.63;1.88;;;20.70;73.50;;;;;;5026399;28;20057;-69
2021/04/09 06:06:25;;;;;;;5.22;1.75;;;20.70;73.90;;;;;;5027509;28;20028;-66
2021/04/09 06:08:52;;;;;;;4.63;1.95;;;20.70;73.60;;;;;;5018423;28;20022;-68
2021/04/09 06:11:19;;;;;;;3.08;1.27;;;20.70;73.60;;;;;;5023157;28;20049;-69
2021/04/09 06:13:45;;;;;;;4.13;1.58;;;20.70;73.60;;;;;;5030880;28;20096;-65
2021/04/09 06:16:12;;;;;;;4.22;2.17;;;20.70;73.70;;;;;;5026221;28;20087;-65
2021/04/09 06:18:38;;;;;;;4.90;1.83;;;20.70;73.70;;;;;;5016568;28;20069;-65
2021/04/09 06:21:05;;;;;;;2.42;1.40;;;20.70;73.70;;;;;;5021867;28;20030;-65
2021/04/09 06:23:32;;;;;;;3.42;1.45;;;20.70;73.80;;;;;;5019927;28;20602;-68
2021/04/09 06:25:58;;;;;;;2.13;1.42;;;20.70;73.80;;;;;;5021371;28;20025;-73
2021/04/09 06:28:25;;;;;;;3.92;1.60;;;20.70;74.00;;;;;;5028183;28;20021;-70
2021/04/09 06:30:51;;;;;;;1.77;1.50;;;20.80;74.00;;;;;;5023449;28;20033;-72
2021/04/09 06:33:17;;;;;;;3.13;1.50;;;20.80;74.10;;;;;;5025811;28;20053;-68
2021/04/09 06:35:44;;;;;;;7.05;2.15;;;20.80;74.10;;;;;;5023075;28;20037;-65
2021/04/09 06:38:10;;;;;;;5.50;1.83;;;20.80;74.20;;;;;;5022447;28;20398;-65
2021/04/09 06:40:40;;;;;;;1.75;1.35;;;20.80;74.20;;;;;;5025930;28;20033;-65
2021/04/09 06:43:06;;;;;;;3.88;1.60;;;20.80;74.20;;;;;;5020472;28;20017;-70
2021/04/09 06:45:33;;;;;;;4.47;2.38;;;20.80;74.20;;;;;;5026063;28;20025;-66
2021/04/09 06:48:00;;;;;;;3.08;1.80;;;20.90;74.30;;;;;;5024238;28;20108;-66
2021/04/09 06:50:27;;;;;;;14.77;2.33;;;20.90;74.20;;;;;;5022726;28;20091;-68
2021/04/09 06:52:56;;;;;;;2.50;1.27;;;20.90;74.20;;;;;;5025002;28;20076;-67
2021/04/09 06:55:23;;;;;;;2.78;1.20;;;20.90;74.20;;;;;;5016841;28;20076;-70
2021/04/09 06:57:54;;;;;;;3.88;1.33;;;20.90;74.20;;;;;;5022407;28;20064;-65
2021/04/09 07:00:30;;;;;;;1.45;1.20;;;20.90;74.20;;;;;;5025318;28;20377;-65
2021/04/09 07:02:57;;;;;;;5.13;1.63;;;21.00;74.20;;;;;;5020321;28;20100;-67
2021/04/09 07:05:26;;;;;;;2.20;1.10;;;21.00;74.20;;;;;;5021979;28;20026;-65
2021/04/09 07:07:53;;;;;;;1.90;0.93;;;21.10;74.20;;;;;;5020982;28;20057;-70
2021/04/09 07:10:20;;;;;;;1.95;1.20;;;21.10;74.10;;;;;;5027127;28;20148;-65
2021/04/09 07:12:46;;;;;;;1.98;1.27;;;21.10;74.00;;;;;;5020498;28;20032;-71
2021/04/09 07:15:17;;;;;;;3.70;1.00;;;21.20;74.00;;;;;;5026746;28;20018;-68
2021/04/09 07:17:48;;;;;;;3.50;1.20;;;21.20;73.90;;;;;;5022074;28;20028;-68
2021/04/09 07:20:23;;;;;;;1.55;1.08;;;21.20;73.90;;;;;;5022059;28;20384;-65
2021/04/09 07:22:52;;;;;;;1.98;0.80;;;21.20;73.70;;;;;;5022221;28;20040;-66
2021/04/09 07:25:22;;;;;;;1.98;1.00;;;21.30;73.70;;;;;;5022427;28;20047;-66
2021/04/09 07:27:51;;;;;;;7.13;1.15;;;21.30;73.60;;;;;;5022864;28;20022;-66
2021/04/09 07:30:28;;;;;;;2.22;0.90;;;21.30;73.60;;;;;;5024877;28;20505;-66
2021/04/09 07:33:06;;;;;;;1.02;0.85;;;21.30;73.40;;;;;;5019490;28;20049;-67
2021/04/09 07:35:51;;;;;;;4.00;1.23;;;21.30;73.30;;;;;;5026135;28;20017;-66
2021/04/09 07:38:32;;;;;;;1.83;0.80;;;21.40;73.30;;;;;;5021457;28;20038;-69
2021/04/09 07:41:10;;;;;;;2.40;1.05;;;21.40;73.20;;;;;;5023858;28;20366;-69
2021/04/09 07:43:45;;;;;;;2.85;1.10;;;21.40;73.10;;;;;;5022403;28;20033;-68
2021/04/09 07:46:21;;;;;;;1.20;1.10;;;21.50;73.10;;;;;;5026964;28;20436;-67
2021/04/09 07:48:49;;;;;;;3.05;1.38;;;21.50;73.00;;;;;;5022199;28;20072;-67
2021/04/09 07:51:20;;;;;;;2.83;0.85;;;21.50;73.00;;;;;;5020368;28;20018;-66
2021/04/09 07:53:47;;;;;;;4.07;0.70;;;21.60;73.00;;;;;;5027576;28;20116;-66
2021/04/09 07:56:16;;;;;;;1.42;0.70;;;21.50;72.80;;;;;;5021478;28;20017;-67
2021/04/09 07:58:45;;;;;;;4.00;1.08;;;21.60;72.80;;;;;;5023337;28;20065;-68
2021/04/09 08:01:26;;;;;;;2.78;0.82;;;21.60;72.70;;;;;;5021081;28;20547;-65
2021/04/09 08:03:52;;;;;;;6.32;1.35;;;21.60;72.50;;;;;;5018740;28;20018;-68
2021/04/09 08:06:21;;;;;;;2.58;0.60;;;21.70;72.60;;;;;;5024649;28;20017;-66
2021/04/09 08:08:47;;;;;;;5.78;1.02;;;21.70;72.50;;;;;;5025469;28;20018;-69
2021/04/09 08:11:37;;;;;;;1.83;0.80;;;21.80;72.40;;;;;;5026238;28;20053;-66
2021/04/09 08:14:14;;;;;;;3.75;1.38;;;21.80;73.00;;;;;;5016970;28;20034;-71
2021/04/09 08:16:46;;;;;;;2.10;1.83;;;21.80;72.20;;;;;;5022403;28;20199;-66
2021/04/09 08:19:14;;;;;;;4.75;1.00;;;21.90;72.00;;;;;;5019696;28;20037;-66
2021/04/09 08:21:44;;;;;;;1.45;0.80;;;21.90;71.90;;;;;;5026856;28;20021;-67
2021/04/09 08:24:11;;;;;;;2.47;0.68;;;21.90;71.80;;;;;;5024448;28;20033;-67
2021/04/09 08:26:39;;;;;;;3.95;2.40;;;22.00;71.80;;;;;;5024611;28;20425;-67
2021/04/09 08:29:11;;;;;;;3.40;1.00;;;22.00;71.60;;;;;;5027416;28;20079;-71
2021/04/09 08:31:39;;;;;;;1.35;0.70;;;22.00;71.50;;;;;;5023241;28;20435;-67
2021/04/09 08:34:08;;;;;;;3.22;0.50;;;22.10;71.50;;;;;;5023682;28;20029;-66
2021/04/09 08:36:42;;;;;;;2.67;0.90;;;22.10;71.30;;;;;;5030756;28;20503;-66
2021/04/09 08:39:10;;;;;;;1.63;0.65;;;22.10;71.20;;;;;;5025574;28;20147;-70
2021/04/09 08:41:38;;;;;;;2.22;1.05;;;22.20;71.00;;;;;;5027382;28;20041;-68
2021/04/09 08:44:07;;;;;;;1.35;0.75;;;22.20;70.90;;;;;;5024220;28;20029;-66
2021/04/09 08:46:34;;;;;;;2.92;0.60;;;22.30;70.80;;;;;;5028223;28;20021;-70
2021/04/09 08:49:01;;;;;;;1.60;0.80;;;22.30;70.60;;;;;;5024981;28;20018;-66
2021/04/09 08:51:29;;;;;;;4.47;1.00;;;22.40;70.50;;;;;;5031494;28;20641;-73
2021/04/09 08:54:15;;;;;;;3.60;1.15;;;22.40;70.40;;;;;;5027786;28;20049;-72
2021/04/09 08:56:42;;;;;;;4.00;1.27;;;22.40;70.30;;;;;;5022983;28;20033;-73
2021/04/09 08:59:09;;;;;;;4.78;1.10;;;22.50;70.10;;;;;;5021122;28;20042;-73
2021/04/09 09:01:35;;;;;;;3.10;1.45;;;22.50;69.90;;;;;;5018978;28;20071;-67
2021/04/09 09:04:22;;;;;;;2.10;0.95;;;22.50;69.70;;;;;;5028592;28;20025;-66
2021/04/09 09:06:50;;;;;;;4.25;1.05;;;22.60;69.70;;;;;;5022913;28;20038;-67
2021/04/09 09:09:30;;;;;;;0.93;0.50;;;22.60;69.30;;;;;;5023689;28;20076;-66
2021/04/09 09:11:58;;;;;;;1.42;0.90;;;22.70;69.20;;;;;;5027419;28;20542;-66
2021/04/09 09:14:33;;;;;;;1.60;0.80;;;22.80;69.10;;;;;;5027032;28;20013;-67
2021/04/09 09:17:21;;;;;;;3.53;1.10;;;22.80;68.70;;;;;;5025881;28;20021;-67
2021/04/09 09:19:49;;;;;;;1.85;1.30;;;22.80;68.50;;;;;;5024006;28;20408;-66
2021/04/09 09:22:21;;;;;;;2.35;0.90;;;22.90;68.40;;;;;;5025763;28;20022;-69
2021/04/09 09:25:07;;;;;;;1.85;0.95;;;22.90;68.30;;;;;;5025870;28;20029;-66
2021/04/09 09:27:51;;;;;;;2.85;1.10;;;22.90;68.10;;;;;;5025664;28;20037;-70
2021/04/09 09:30:31;;;;;;;3.15;1.05;;;23.00;68.10;;;;;;5024418;28;20407;-73
2021/04/09 09:33:23;;;;;;;3.47;0.80;;;23.00;68.00;;;;;;5025489;28;20073;-66
2021/04/09 09:36:09;;;;;;;5.57;0.90;;;23.00;67.80;;;;;;5026342;28;20083;-66
2021/04/09 09:38:48;;;;;;;;;;;23.10;67.70;;;;;;5024732;28;20029;-67
2021/04/09 09:41:39;;;;;;;2.75;0.80;;;23.20;67.50;;;;;;5028945;28;19916;-71
2021/04/09 09:44:29;;;;;;;3.25;0.98;;;23.20;67.40;;;;;;5024832;28;20040;-66
2021/04/09 09:47:03;;;;;;;1.27;0.73;;;23.30;67.30;;;;;;5022700;28;20493;-67
2021/04/09 09:49:34;;;;;;;3.03;1.17;;;23.30;67.10;;;;;;5029390;28;20017;-67
2021/04/09 09:52:05;;;;;;;2.78;1.13;;;23.30;66.90;;;;;;5024918;28;20100;-70
2021/04/09 09:54:33;;;;;;;1.42;0.73;;;23.40;66.90;;;;;;5021893;28;20105;-70
2021/04/09 09:57:20;;;;;;;4.20;1.10;;;23.40;66.80;;;;;;5024577;28;20076;-75
2021/04/09 09:59:47;;;;;;;1.92;0.70;;;23.50;66.70;;;;;;5021502;28;20408;-67
2021/04/09 10:02:19;;;;;;;2.22;0.95;;;23.50;66.40;;;;;;5024547;28;20032;-66
2021/04/09 10:04:52;;;;;;;1.30;0.77;;;23.50;66.20;;;;;;5024217;28;20108;-70
2021/04/09 10:07:22;;;;;;;1.60;0.90;;;23.60;66.20;;;;;;5027505;28;20041;-69
2021/04/09 10:09:53;;;;;;;2.40;1.20;;;23.60;66.10;;;;;;5021594;28;20022;-66
2021/04/09 10:12:23;;;;;;;1.60;0.52;;;23.60;66.20;;;;;;5023499;28;20580;-66
2021/04/09 10:14:53;;;;;;;1.88;1.23;;;23.70;66.10;;;;;;5026097;28;20029;-66
2021/04/09 10:17:20;;;;;;;2.25;1.10;;;23.70;65.80;;;;;;5021256;28;20099;-68
2021/04/09 10:20:06;;;;;;;1.00;0.70;;;23.80;66.40;;;;;;5026854;28;20026;-68
2021/04/09 10:23:02;;;;;;;2.40;1.40;;;23.90;65.40;;;;;;5019902;28;20420;-70
2021/04/09 10:25:33;;;;;;;1.48;0.80;;;23.90;65.10;;;;;;5025450;28;20033;-68
2021/04/09 10:28:00;;;;;;;2.38;0.60;;;24.00;64.80;;;;;;5022285;28;20033;-67
2021/04/09 10:30:31;;;;;;;0.85;0.70;;;24.00;64.80;;;;;;5024844;28;20489;-72
2021/04/09 10:32:58;;;;;;;3.95;0.70;;;24.00;64.60;;;;;;5028935;28;20041;-70
2021/04/09 10:35:26;;;;;;;3.28;0.77;;;24.10;64.50;;;;;;5021116;28;20025;-70
2021/04/09 10:38:11;;;;;;;1.80;0.77;;;24.10;64.30;;;;;;5019690;28;20025;-69
2021/04/09 10:40:56;;;;;;;1.15;0.80;;;24.20;64.20;;;;;;5022508;28;20045;-73
2021/04/09 10:43:33;;;;;;;1.75;0.47;;;24.20;63.80;;;;;;5027473;28;20423;-74
2021/04/09 10:46:14;;;;;;;1.00;0.70;;;24.30;63.60;;;;;;5026383;28;20040;-74
2021/04/09 10:48:42;;;;;;;1.50;0.95;;;24.40;63.50;;;;;;5019582;28;20077;-72
2021/04/09 10:51:09;;;;;;;1.48;0.60;;;24.40;63.10;;;;;;5034926;28;20021;-70
2021/04/09 10:53:38;;;;;;;1.67;0.80;;;24.50;63.00;;;;;;5020051;28;20037;-69
2021/04/09 10:56:08;;;;;;;1.88;0.80;;;24.50;62.80;;;;;;5019457;28;20083;-73
2021/04/09 10:58:36;;;;;;;4.85;1.27;;;24.60;62.40;;;;;;5026308;28;20040;-66
2021/04/09 11:01:03;;;;;;;1.77;1.08;;;24.60;62.20;;;;;;5021168;28;20022;-66
2021/04/09 11:03:31;;;;;;;1.33;0.63;;;24.60;62.10;;;;;;5025917;28;20041;-67
2021/04/09 11:05:59;;;;;;;1.25;0.80;;;24.70;61.90;;;;;;5024714;28;20389;-66
2021/04/09 11:08:39;;;;;;;1.70;0.70;;;24.70;61.50;;;;;;5024976;28;20527;-68
2021/04/09 11:11:15;;;;;;;4.07;1.23;;;24.80;61.20;;;;;;5025890;28;20037;-69
2021/04/09 11:13:43;;;;;;;1.48;0.63;;;24.80;60.80;;;;;;5019179;28;20022;-71
2021/04/09 11:16:11;;;;;;;2.67;0.90;;;24.90;60.70;;;;;;5023365;28;20026;-66
2021/04/09 11:18:49;;;;;;;1.13;0.82;;;24.90;60.60;;;;;;5022804;28;20127;-71
2021/04/09 11:21:36;;;;;;;2.70;1.20;;;25.00;60.60;;;;;;5026036;28;20108;-69
2021/04/09 11:24:03;;;;;;;1.75;0.77;;;25.00;60.70;;;;;;5019680;28;20041;-75
2021/04/09 11:26:35;;;;;;;2.90;0.80;;;25.10;60.60;;;;;;5027560;28;20025;-73
2021/04/09 11:29:02;;;;;;;1.63;0.60;;;25.10;60.30;;;;;;5021101;28;20029;-68
2021/04/09 11:31:28;;;;;;;1.38;0.82;;;25.20;60.20;;;;;;5019182;28;20033;-70
2021/04/09 11:34:10;;;;;;;1.10;0.75;;;25.20;60.00;;;;;;5025686;28;20467;-71
2021/04/09 11:36:57;;;;;;;1.83;0.80;;;25.30;59.90;;;;;;5034685;28;20389;-70
2021/04/09 11:39:24;;;;;;;0.98;0.80;;;25.30;59.70;;;;;;5022169;28;20055;-73
2021/04/09 11:41:59;;;;;;;1.85;0.70;;;25.30;59.60;;;;;;5020831;28;20385;-68
2021/04/09 11:44:37;;;;;;;3.13;0.90;;;25.40;59.40;;;;;;5024479;28;20110;-71
2021/04/09 11:47:14;;;;;;;1.27;0.60;;;25.40;59.30;;;;;;5020782;28;20485;-69
2021/04/09 11:49:41;;;;;;;1.77;0.60;;;25.40;59.30;;;;;;5025467;28;20072;-74
2021/04/09 11:52:07;;;;;;;1.27;0.52;;;25.50;59.10;;;;;;5025794;28;20018;-74
2021/04/09 11:54:37;;;;;;;2.83;0.70;;;25.60;59.10;;;;;;5023853;28;20120;-71
2021/04/09 11:57:05;;;;;;;2.88;0.55;;;25.60;58.90;;;;;;5027033;28;20032;-68
2021/04/09 11:59:35;;;;;;;2.83;0.70;;;25.60;58.70;;;;;;5028200;28;20044;-66
2021/04/09 12:02:28;;;;;;;2.15;0.88;;;25.60;58.70;;;;;;5030186;28;20067;-71
2021/04/09 12:04:55;;;;;;;4.70;0.75;;;25.70;58.70;;;;;;5028912;28;20033;-70
2021/04/09 12:07:25;;;;;;;1.33;0.70;;;25.80;58.70;;;;;;5029722;28;20025;-69
2021/04/09 12:10:00;;;;;;;0.93;0.60;;;25.80;58.80;;;;;;5025534;28;20392;-72
2021/04/09 12:12:27;;;;;;;2.25;0.70;;;25.90;58.60;;;;;;5023575;28;20024;-69
2021/04/09 12:14:56;;;;;;;1.92;0.80;;;26.00;58.40;;;;;;5030171;28;20100;-70
2021/04/09 12:17:24;;;;;;;2.85;0.88;;;26.00;58.10;;;;;;5019064;28;20653;-68
2021/04/09 12:19:54;;;;;;;1.50;0.90;;;26.10;58.10;;;;;;5027725;28;20057;-67
2021/04/09 12:22:21;;;;;;;1.17;0.63;;;26.10;58.00;;;;;;5023942;28;20049;-67
2021/04/09 12:24:48;;;;;;;2.15;0.93;;;26.10;57.80;;;;;;5026362;28;20503;-69
2021/04/09 12:27:19;;;;;;;4.82;0.82;;;26.20;57.70;;;;;;5030145;28;20070;-70
2021/04/09 12:29:46;;;;;;;2.20;0.80;;;26.20;57.60;;;;;;5031830;28;20087;-73
2021/04/09 12:32:13;;;;;;;1.15;0.73;;;26.20;57.50;;;;;;5027266;28;20042;-69
2021/04/09 12:34:40;;;;;;;1.27;0.65;;;26.20;57.60;;;;;;5027644;28;20506;-66
2021/04/09 12:37:06;;;;;;;1.05;0.90;;;26.30;57.50;;;;;;5038658;28;20605;-70
2021/04/09 12:39:33;;;;;;;1.58;0.50;;;26.30;57.30;;;;;;5029022;28;20037;-67
2021/04/09 12:42:01;;;;;;;1.92;0.60;;;26.40;57.30;;;;;;5029479;28;20032;-69
2021/04/09 12:44:28;;;;;;;5.32;0.82;;;26.40;57.10;;;;;;5023243;28;20009;-66
2021/04/09 12:46:54;;;;;;;1.60;0.60;;;26.40;57.10;;;;;;5026725;28;20025;-67
2021/04/09 12:49:22;;;;;;;1.85;0.70;;;26.40;57.00;;;;;;5028948;28;20368;-67
2021/04/09 12:51:50;;;;;;;4.32;1.02;;;26.40;56.90;;;;;;5030880;28;20026;-67
2021/04/09 12:54:17;;;;;;;1.67;1.00;;;26.40;56.90;;;;;;5027963;28;20060;-68
2021/04/09 12:56:44;;;;;;;1.73;0.50;;;26.40;56.80;;;;;;5026443;28;20071;-72
2021/04/09 12:59:10;;;;;;;1.30;0.50;;;26.40;56.90;;;;;;5023655;28;20045;-66
2021/04/09 13:01:37;;;;;;;0.60;0.50;;;26.40;56.90;;;;;;5022349;28;20029;-71
2021/04/09 13:04:04;;;;;;;3.55;0.63;;;26.50;57.00;;;;;;5023026;28;20030;-68
2021/04/09 13:06:30;;;;;;;1.83;1.13;;;26.50;57.00;;;;;;5029120;28;20493;-69
2021/04/09 13:08:57;;;;;;;2.40;0.77;;;26.50;57.00;;;;;;5027866;28;20120;-67
2021/04/09 13:11:23;;;;;;;2.40;0.85;;;26.50;57.00;;;;;;5024540;28;20021;-68
2021/04/09 13:13:50;;;;;;;1.05;0.60;;;26.50;57.00;;;;;;5027712;28;20018;-70